KMWT

Mount Ida Airport

Mount Ida, Arkansas, USA
METAR KMWT 192253Z AUTO 00000KT 10SM CLR 30/25 A2981 RMK AO2 SLP081 T03000250 $
Observed Flight Rules
Aug-19 @ 22:53 UTC (16 minutes ago) Visual Flight Rules
Visibility Clouds
10 miles
  • Clear skies
Temperatures Readings
Current 30°C / 86°F
Dewpoint 25°C / 77°F
Humidity 75%
Altimeter 29.81" Hg
Pressure 1008.1 hPa
Elevation 214
METAR KMWT 192253Z AUTO 00000KT 10SM CLR 30/25 A2981 RMK AO2 SLP081 T03000250 $
Observed Flight Rules
Aug-19 @ 22:53 UTC
(16 minutes ago)
VFR
Clouds
  • Clear skies
Temperature Dewpoint
30°C / 86°F 25°C / 77°F
Humidity Altimeter Pressure
75% 29.81" Hg 1008.1 hPa